createdAt,value
2022-09-22T04:07:40.167Z,7.71
2022-09-22T04:27:42.826Z,7.69
2022-09-22T04:47:45.816Z,7.72
2022-09-22T05:07:48.525Z,7.70
2022-09-22T05:27:52.096Z,7.85
2022-09-22T05:47:54.982Z,8.14
2022-09-22T06:08:00.268Z,8.44
2022-09-22T06:28:04.548Z,8.26
2022-09-22T06:48:10.098Z,8.55
2022-09-22T07:08:13.257Z,9.20
2022-09-22T07:28:16.823Z,10.27
2022-09-22T07:48:38.195Z,10.91
2022-09-22T08:08:40.997Z,11.31
2022-09-22T08:28:44.795Z,11.03
2022-09-22T08:49:06.646Z,11.82
2022-09-22T09:09:10.470Z,12.98
2022-09-22T09:29:13.450Z,12.66
2022-09-22T09:49:16.118Z,12.83
2022-09-22T10:09:18.811Z,12.38
2022-09-22T10:29:22.657Z,11.76
2022-09-22T10:49:25.081Z,12.48
2022-09-22T11:09:46.762Z,13.56
2022-09-22T11:29:49.537Z,11.49
2022-09-22T11:49:52.089Z,12.71
2022-09-22T12:09:54.802Z,12.48
2022-09-22T12:29:57.294Z,12.62
2022-09-22T12:50:00.274Z,14.49
2022-09-22T13:10:02.968Z,14.33
2022-09-22T13:30:05.665Z,14.17
2022-09-22T13:50:08.455Z,14.01
2022-09-22T14:10:11.352Z,15.46
2022-09-22T14:30:15.232Z,14.12
2022-09-22T14:50:24.619Z,13.92
2022-09-22T15:10:28.038Z,14.10
2022-09-22T15:30:33.053Z,13.23
2022-09-22T15:50:36.026Z,12.76
2022-09-22T16:10:38.600Z,12.66
2022-09-22T16:30:41.657Z,12.43
2022-09-22T16:50:44.232Z,12.53
2022-09-22T17:10:47.364Z,11.67
2022-09-22T17:30:49.886Z,11.82
2022-09-22T17:51:11.281Z,11.53
2022-09-22T18:11:14.867Z,11.28
2022-09-22T18:31:18.669Z,10.39
2022-09-22T18:51:21.441Z,10.49
2022-09-22T19:11:24.223Z,10.45
2022-09-22T19:31:26.758Z,10.26
2022-09-22T19:51:30.371Z,10.17
2022-09-22T22:33:59.898Z,8.90
2022-09-22T22:54:02.522Z,9.12
2022-09-22T23:14:22.424Z,9.17
